Time;durP1;ratioP1;P1;durP2;ratioP2;P2;SDS_P1;SDS_P2;PMS_P1;PMS_P2;Temp;Humidity;BMP_temperature;BMP_pressure;BME280_temperature;BME280_humidity;BME280_pressure;Samples;Min_cycle;Max_cycle;Signal;HPM_P1;HPM_P2
2021/04/29 00:01:36;;;;;;;3.33;2.28;;;20.70;37.30;;;;;;5035276;28;20025;-57
2021/04/29 00:04:01;;;;;;;2.80;2.30;;;20.70;37.30;;;;;;5034864;28;20087;-55
2021/04/29 00:06:27;;;;;;;2.08;1.60;;;20.70;37.30;;;;;;5034663;28;20045;-55
2021/04/29 00:08:52;;;;;;;1.73;1.63;;;20.70;37.30;;;;;;5034797;28;20100;-58
2021/04/29 00:11:18;;;;;;;2.83;1.80;;;20.70;37.30;;;;;;5030628;28;20406;-55
2021/04/29 00:13:43;;;;;;;2.70;2.00;;;20.70;37.30;;;;;;5034370;28;20498;-53
2021/04/29 00:16:09;;;;;;;3.08;2.08;;;20.70;37.30;;;;;;5034412;28;20051;-55
2021/04/29 00:18:34;;;;;;;2.10;1.90;;;20.70;37.30;;;;;;5034647;28;20034;-56
2021/04/29 00:21:00;;;;;;;2.08;1.80;;;20.70;37.30;;;;;;5034453;28;20111;-56
2021/04/29 00:23:28;;;;;;;3.45;1.98;;;20.70;37.30;;;;;;5034721;28;20091;-58
2021/04/29 00:25:54;;;;;;;3.08;1.80;;;20.60;37.30;;;;;;5034521;28;20025;-52
2021/04/29 00:28:20;;;;;;;1.77;1.67;;;20.70;37.40;;;;;;5034662;28;20352;-53
2021/04/29 00:30:46;;;;;;;3.22;1.50;;;20.70;37.40;;;;;;5034380;28;20030;-56
2021/04/29 00:33:12;;;;;;;2.92;2.15;;;20.60;37.40;;;;;;5017364;28;20041;-57
2021/04/29 00:35:37;;;;;;;2.05;1.85;;;20.60;37.40;;;;;;5034761;28;20387;-59
2021/04/29 00:38:03;;;;;;;2.80;2.00;;;20.60;37.40;;;;;;5033985;28;20033;-55
2021/04/29 00:40:29;;;;;;;2.30;1.83;;;20.60;37.40;;;;;;5034242;28;20025;-57
2021/04/29 00:42:54;;;;;;;2.55;2.17;;;20.70;37.40;;;;;;5034502;28;20030;-58
2021/04/29 00:45:20;;;;;;;2.55;1.92;;;20.60;37.40;;;;;;5034523;28;20117;-59
2021/04/29 00:47:49;;;;;;;2.15;1.55;;;20.60;37.40;;;;;;5034656;28;20025;-55
2021/04/29 00:50:17;;;;;;;2.83;2.33;;;20.60;37.40;;;;;;5034494;28;20024;-59
2021/04/29 00:52:43;;;;;;;2.83;2.10;;;20.60;37.40;;;;;;5034530;28;20048;-57
2021/04/29 00:55:09;;;;;;;2.17;1.98;;;20.60;37.40;;;;;;5034347;28;20364;-55
2021/04/29 00:57:35;;;;;;;3.03;2.10;;;20.60;37.40;;;;;;5034014;28;20446;-55
2021/04/29 01:00:05;;;;;;;3.58;2.08;;;20.60;37.40;;;;;;5046658;28;20104;-57
2021/04/29 01:02:31;;;;;;;2.00;1.90;;;20.60;37.50;;;;;;5058005;28;20041;-57
2021/04/29 01:05:00;;;;;;;4.00;2.42;;;20.60;37.50;;;;;;5057797;28;20068;-54
2021/04/29 01:07:31;;;;;;;3.20;2.22;;;20.60;37.50;;;;;;5057557;28;20379;-57
2021/04/29 01:10:06;;;;;;;4.25;2.20;;;20.60;37.50;;;;;;5040362;28;20491;-51
2021/04/29 01:12:43;;;;;;;2.10;1.70;;;20.50;37.40;;;;;;5057765;28;20117;-57
2021/04/29 01:15:11;;;;;;;2.85;1.90;;;20.50;37.40;;;;;;5039873;28;20108;-58
2021/04/29 01:17:40;;;;;;;4.07;2.25;;;20.50;37.80;;;;;;5058022;28;20033;-58
2021/04/29 01:20:12;;;;;;;2.92;2.63;;;20.50;37.50;;;;;;5057942;28;20040;-57
2021/04/29 01:22:43;;;;;;;3.30;2.42;;;20.50;37.50;;;;;;5057695;28;20021;-59
2021/04/29 01:25:14;;;;;;;2.10;1.80;;;20.50;37.50;;;;;;5057732;28;20036;-57
2021/04/29 01:27:39;;;;;;;2.13;1.83;;;20.50;37.60;;;;;;5057347;28;20036;-54
2021/04/29 01:30:08;;;;;;;2.53;1.73;;;20.50;37.60;;;;;;5057610;28;20025;-56
2021/04/29 01:32:34;;;;;;;2.47;1.75;;;20.50;37.70;;;;;;5057682;28;20045;-56
2021/04/29 01:35:01;;;;;;;3.20;1.92;;;20.50;37.70;;;;;;5057189;28;20029;-56
2021/04/29 01:37:27;;;;;;;2.33;1.95;;;20.50;37.70;;;;;;5057414;28;20467;-54
2021/04/29 01:39:53;;;;;;;2.38;1.73;;;20.50;37.80;;;;;;5057343;28;20021;-58
2021/04/29 01:42:19;;;;;;;2.83;2.22;;;20.50;37.80;;;;;;5034715;28;20534;-57
2021/04/29 01:44:45;;;;;;;2.50;2.08;;;20.50;37.80;;;;;;5037139;28;20082;-55
2021/04/29 01:47:11;;;;;;;2.47;1.88;;;20.50;37.80;;;;;;5037194;28;20082;-57
2021/04/29 01:49:37;;;;;;;1.85;1.65;;;20.50;37.80;;;;;;5037319;28;20344;-55
2021/04/29 01:52:03;;;;;;;1.63;1.50;;;20.40;37.80;;;;;;5037312;28;20025;-53
2021/04/29 01:54:28;;;;;;;1.52;1.42;;;20.50;37.90;;;;;;5020078;28;20399;-53
2021/04/29 01:56:54;;;;;;;2.50;1.80;;;20.50;37.90;;;;;;5037384;28;20037;-57
2021/04/29 01:59:20;;;;;;;3.25;1.67;;;20.50;37.90;;;;;;5036804;28;20114;-57
2021/04/29 02:01:46;;;;;;;1.98;1.52;;;20.40;37.90;;;;;;5036708;28;20026;-53
2021/04/29 02:04:12;;;;;;;1.95;1.67;;;20.50;38.00;;;;;;5036923;28;20022;-52
2021/04/29 02:06:39;;;;;;;2.67;2.00;;;20.40;38.00;;;;;;5037010;28;20026;-51
2021/04/29 02:09:07;;;;;;;3.22;2.00;;;20.40;38.00;;;;;;5036705;28;20053;-54
2021/04/29 02:11:37;;;;;;;3.58;2.08;;;20.40;38.00;;;;;;5036869;28;20029;-56
2021/04/29 02:14:06;;;;;;;1.90;1.70;;;20.40;38.00;;;;;;5036636;28;20032;-56
2021/04/29 02:16:41;;;;;;;2.42;1.80;;;20.40;38.00;;;;;;5036759;28;20017;-52
2021/04/29 02:19:08;;;;;;;3.13;1.92;;;20.40;38.00;;;;;;5036487;28;20452;-54
2021/04/29 02:21:37;;;;;;;3.70;1.70;;;20.40;38.10;;;;;;5037039;28;20029;-50
2021/04/29 02:24:04;;;;;;;2.45;2.00;;;20.40;38.10;;;;;;5019394;28;20032;-51
2021/04/29 02:26:32;;;;;;;2.78;1.70;;;20.40;38.10;;;;;;5036606;28;20033;-56
2021/04/29 02:28:57;;;;;;;1.95;1.67;;;20.40;38.10;;;;;;5036663;28;20111;-56
2021/04/29 02:31:23;;;;;;;1.90;1.80;;;20.40;38.20;;;;;;5036506;28;20092;-53
2021/04/29 02:33:51;;;;;;;2.33;1.95;;;20.40;38.20;;;;;;5036812;28;20030;-54
2021/04/29 02:36:17;;;;;;;2.17;1.63;;;20.40;38.20;;;;;;5036506;28;20053;-56
2021/04/29 02:38:43;;;;;;;2.50;1.83;;;20.30;38.20;;;;;;5036423;28;20048;-53
2021/04/29 02:41:09;;;;;;;2.83;2.10;;;20.30;38.20;;;;;;5036456;28;20151;-55
2021/04/29 02:43:35;;;;;;;3.35;1.80;;;20.30;38.20;;;;;;5036082;28;20080;-59
2021/04/29 02:46:02;;;;;;;2.15;1.77;;;20.30;38.20;;;;;;5036356;28;20044;-59
2021/04/29 02:48:29;;;;;;;1.95;1.75;;;20.30;38.30;;;;;;5019052;28;20033;-55
2021/04/29 02:50:54;;;;;;;2.65;1.77;;;20.30;38.30;;;;;;5036185;28;20038;-52
2021/04/29 02:53:21;;;;;;;2.88;1.95;;;20.30;38.30;;;;;;5036229;28;20106;-56
2021/04/29 02:55:49;;;;;;;2.25;1.90;;;20.30;38.40;;;;;;5035659;28;20496;-54
2021/04/29 02:58:16;;;;;;;2.92;1.60;;;20.30;38.40;;;;;;5035965;28;20133;-55
2021/04/29 03:00:43;;;;;;;2.90;1.98;;;20.30;38.40;;;;;;5036139;28;20337;-55
2021/04/29 03:03:09;;;;;;;2.00;1.80;;;20.30;38.40;;;;;;5035938;28;20022;-54
2021/04/29 03:05:36;;;;;;;2.65;1.80;;;20.30;38.40;;;;;;5035986;28;20436;-59
2021/04/29 03:08:03;;;;;;;2.28;1.65;;;20.30;38.50;;;;;;5035931;28;20028;-54
2021/04/29 03:10:29;;;;;;;2.30;2.10;;;20.30;38.50;;;;;;5035803;28;20400;-53
2021/04/29 03:12:54;;;;;;;1.70;1.55;;;20.30;38.50;;;;;;5035819;28;20053;-56
2021/04/29 03:15:21;;;;;;;2.13;1.83;;;20.30;38.50;;;;;;5035660;28;20021;-56
2021/04/29 03:17:47;;;;;;;1.80;1.60;;;20.30;38.60;;;;;;5035989;28;20410;-54
2021/04/29 03:20:13;;;;;;;2.55;1.90;;;20.20;38.50;;;;;;5035696;28;20022;-51
2021/04/29 03:22:39;;;;;;;2.38;1.85;;;20.30;38.60;;;;;;5035728;28;20171;-54
2021/04/29 03:25:05;;;;;;;2.70;1.60;;;20.20;38.60;;;;;;5035374;28;20120;-55
2021/04/29 03:27:31;;;;;;;2.13;1.63;;;20.20;38.60;;;;;;5035442;28;20040;-52
2021/04/29 03:29:57;;;;;;;2.20;1.85;;;20.20;38.70;;;;;;5035578;28;20026;-57
2021/04/29 03:32:23;;;;;;;2.38;1.70;;;20.20;38.70;;;;;;5035968;28;20133;-58
2021/04/29 03:34:48;;;;;;;2.70;1.83;;;20.20;38.70;;;;;;5035458;28;20091;-54
2021/04/29 03:37:15;;;;;;;2.65;1.70;;;20.20;38.70;;;;;;5035530;28;20033;-55
2021/04/29 03:39:40;;;;;;;1.95;1.70;;;20.20;38.80;;;;;;5035178;28;20037;-54
2021/04/29 03:42:07;;;;;;;2.53;1.88;;;20.20;38.80;;;;;;5035581;28;20029;-58
2021/04/29 03:44:34;;;;;;;1.63;1.52;;;20.20;38.80;;;;;;5035293;28;20440;-57
2021/04/29 03:47:00;;;;;;;2.85;1.83;;;20.20;38.80;;;;;;5035590;28;20025;-58
2021/04/29 03:49:25;;;;;;;2.38;2.17;;;20.20;38.90;;;;;;5035211;28;20502;-54
2021/04/29 03:51:51;;;;;;;1.63;1.52;;;20.20;38.80;;;;;;5035134;28;20086;-52
2021/04/29 03:54:16;;;;;;;2.38;2.17;;;20.20;38.90;;;;;;5034715;28;20026;-58
2021/04/29 03:56:42;;;;;;;3.15;2.00;;;20.20;38.90;;;;;;5034737;28;20029;-52
2021/04/29 03:59:07;;;;;;;2.33;1.88;;;20.20;38.90;;;;;;5035052;28;20032;-52
2021/04/29 04:01:33;;;;;;;3.03;1.70;;;20.20;39.00;;;;;;5035044;28;20060;-58
2021/04/29 04:03:58;;;;;;;3.13;1.90;;;20.20;39.00;;;;;;5017381;28;20410;-56
2021/04/29 04:06:24;;;;;;;1.98;1.75;;;20.20;39.00;;;;;;5035055;28;20388;-53
2021/04/29 04:08:50;;;;;;;2.22;1.95;;;20.20;39.00;;;;;;5034820;28;20104;-56
2021/04/29 04:11:15;;;;;;;2.78;1.90;;;20.20;39.00;;;;;;5034866;28;20407;-54
2021/04/29 04:13:41;;;;;;;2.13;1.92;;;20.20;39.10;;;;;;5034565;28;20356;-53
2021/04/29 04:16:07;;;;;;;1.52;1.42;;;20.20;39.10;;;;;;5034479;28;20037;-54
2021/04/29 04:18:32;;;;;;;1.67;1.55;;;20.10;39.10;;;;;;5034978;28;20044;-56
2021/04/29 04:20:58;;;;;;;2.47;1.70;;;20.10;39.10;;;;;;5034714;28;20025;-54
2021/04/29 04:23:23;;;;;;;2.08;1.88;;;20.20;39.80;;;;;;5034903;28;20097;-56
2021/04/29 04:25:49;;;;;;;1.80;1.60;;;20.10;39.10;;;;;;5034961;28;20032;-55
2021/04/29 04:28:15;;;;;;;2.30;1.77;;;20.10;39.10;;;;;;5034956;28;20025;-51
2021/04/29 04:30:40;;;;;;;1.98;1.52;;;20.10;39.10;;;;;;5034520;28;20420;-53
2021/04/29 04:33:06;;;;;;;2.00;1.70;;;20.10;39.10;;;;;;5035066;28;20429;-52
2021/04/29 04:35:31;;;;;;;2.08;1.77;;;20.10;39.20;;;;;;5036137;28;20021;-51
2021/04/29 04:37:57;;;;;;;1.95;1.55;;;20.10;39.20;;;;;;5038688;28;20451;-54
2021/04/29 04:40:22;;;;;;;2.13;1.40;;;20.10;39.20;;;;;;5038616;28;20071;-54
2021/04/29 04:42:48;;;;;;;2.42;1.50;;;20.10;39.30;;;;;;5038920;28;20036;-54
2021/04/29 04:45:13;;;;;;;4.75;1.95;;;20.10;39.30;;;;;;5038598;28;20187;-52
2021/04/29 04:47:39;;;;;;;5.43;1.60;;;20.10;39.50;;;;;;5038333;28;20076;-49
2021/04/29 04:50:07;;;;;;;2.17;1.60;;;20.10;39.60;;;;;;5038526;28;20436;-47
2021/04/29 04:52:33;;;;;;;2.20;1.75;;;20.10;39.50;;;;;;5038239;28;20022;-49
2021/04/29 04:54:59;;;;;;;2.80;2.22;;;20.10;39.40;;;;;;5038559;28;20051;-50
2021/04/29 04:57:24;;;;;;;4.72;2.50;;;20.10;39.40;;;;;;5038447;28;20067;-54
2021/04/29 04:59:50;;;;;;;4.35;1.90;;;20.10;39.40;;;;;;5037883;28;20022;-55
2021/04/29 05:02:15;;;;;;;5.15;2.20;;;20.10;39.70;;;;;;5037994;28;20087;-50
2021/04/29 05:04:41;;;;;;;6.13;1.75;;;20.10;40.00;;;;;;5038220;28;20437;-50
2021/04/29 05:07:07;;;;;;;5.72;1.63;;;20.10;40.10;;;;;;5038118;28;20032;-50
2021/04/29 05:09:33;;;;;;;4.95;1.63;;;20.10;40.00;;;;;;5038272;28;20025;-50
2021/04/29 05:11:59;;;;;;;6.07;1.80;;;20.10;40.10;;;;;;5038163;28;20499;-49
2021/04/29 05:14:25;;;;;;;5.88;2.20;;;20.10;40.10;;;;;;5037955;28;20113;-48
2021/04/29 05:16:51;;;;;;;3.90;1.80;;;20.10;40.20;;;;;;5037707;28;20032;-51
2021/04/29 05:19:16;;;;;;;3.38;1.90;;;20.20;40.30;;;;;;5037628;28;20029;-54
2021/04/29 05:21:42;;;;;;;3.45;2.05;;;20.20;40.30;;;;;;5037733;28;20029;-53
2021/04/29 05:24:08;;;;;;;5.63;1.98;;;20.20;40.20;;;;;;5037563;28;20448;-51
2021/04/29 05:26:34;;;;;;;4.47;1.70;;;20.20;40.10;;;;;;5037419;28;20097;-54
2021/04/29 05:29:00;;;;;;;2.05;1.77;;;20.20;40.10;;;;;;5037903;28;20115;-53
2021/04/29 05:31:25;;;;;;;7.38;2.15;;;20.20;40.10;;;;;;5037141;28;20425;-50
2021/04/29 05:33:51;;;;;;;9.68;2.40;;;20.30;40.30;;;;;;5036654;28;20029;-53
2021/04/29 05:36:16;;;;;;;9.07;1.90;;;20.30;40.50;;;;;;5036604;28;20057;-51
2021/04/29 05:38:42;;;;;;;4.18;1.80;;;20.30;40.40;;;;;;5035919;28;20033;-50
2021/04/29 05:41:08;;;;;;;8.63;1.98;;;20.30;40.40;;;;;;5036274;28;20355;-49
2021/04/29 05:43:33;;;;;;;10.40;2.03;;;20.30;40.40;;;;;;5036365;28;20076;-47
2021/04/29 05:45:59;;;;;;;8.65;2.38;;;20.30;40.70;;;;;;5035889;28;20026;-50
2021/04/29 05:48:24;;;;;;;8.40;2.42;;;20.30;40.90;;;;;;5036117;28;20049;-50
2021/04/29 05:50:50;;;;;;;10.88;2.55;;;20.30;41.00;;;;;;5035834;28;20063;-48
2021/04/29 05:53:15;;;;;;;4.03;2.13;;;20.30;40.90;;;;;;5036098;28;20033;-49
2021/04/29 05:55:41;;;;;;;3.60;1.90;;;20.30;40.80;;;;;;5035920;28;20440;-51
2021/04/29 05:58:06;;;;;;;9.00;2.45;;;20.30;40.70;;;;;;5035591;28;20041;-48
2021/04/29 06:00:34;;;;;;;7.93;2.63;;;20.30;40.90;;;;;;5036356;28;20021;-47
2021/04/29 06:03:00;;;;;;;8.18;2.97;;;20.40;40.90;;;;;;5035930;28;20022;-49
2021/04/29 06:05:25;;;;;;;9.88;2.97;;;20.40;40.90;;;;;;5035255;28;20033;-48
2021/04/29 06:07:58;;;;;;;13.77;2.90;;;20.30;40.80;;;;;;5035807;28;20120;-51
2021/04/29 06:10:24;;;;;;;19.75;3.47;;;20.40;40.90;;;;;;5019172;28;20025;-47
2021/04/29 06:12:50;;;;;;;11.82;2.58;;;20.40;41.00;;;;;;5035952;28;20026;-52
2021/04/29 06:15:16;;;;;;;7.32;2.65;;;20.40;41.10;;;;;;5035545;28;20349;-53
2021/04/29 06:17:41;;;;;;;14.18;2.88;;;20.40;41.10;;;;;;5035362;28;20034;-51
2021/04/29 06:20:08;;;;;;;7.45;2.38;;;20.30;41.10;;;;;;5036187;28;20036;-48
2021/04/29 06:22:33;;;;;;;8.35;2.55;;;20.40;41.20;;;;;;5035884;28;20386;-49
2021/04/29 06:24:59;;;;;;;5.15;2.33;;;20.30;41.20;;;;;;5035882;28;20029;-48
2021/04/29 06:27:24;;;;;;;6.47;1.92;;;20.40;41.40;;;;;;5035780;28;20029;-47
2021/04/29 06:29:50;;;;;;;9.63;2.15;;;20.40;41.30;;;;;;5034955;28;20029;-50
2021/04/29 06:32:15;;;;;;;4.80;2.08;;;20.40;41.30;;;;;;5017608;28;520387;-49
2021/04/29 06:34:42;;;;;;;5.05;2.25;;;20.40;41.20;;;;;;5035833;28;20364;-47
2021/04/29 06:37:07;;;;;;;7.93;1.90;;;20.40;41.20;;;;;;5036353;28;20341;-48
2021/04/29 06:39:33;;;;;;;10.73;2.50;;;20.40;41.20;;;;;;5036025;28;20079;-49
2021/04/29 06:41:58;;;;;;;3.70;1.70;;;20.50;41.30;;;;;;5035820;28;20107;-50
2021/04/29 06:44:24;;;;;;;3.42;2.33;;;20.40;41.20;;;;;;5036448;28;20029;-50
2021/04/29 06:46:50;;;;;;;2.97;1.42;;;20.40;41.60;;;;;;5035975;28;20132;-49
2021/04/29 06:49:15;;;;;;;4.65;2.03;;;20.50;41.60;;;;;;5036087;28;20104;-50
2021/04/29 06:51:41;;;;;;;3.38;1.55;;;20.40;41.50;;;;;;5035972;28;20349;-49
2021/04/29 06:54:07;;;;;;;5.10;1.85;;;20.50;41.50;;;;;;5036184;28;20039;-50
2021/04/29 06:56:33;;;;;;;3.45;2.03;;;20.50;41.50;;;;;;5036095;28;20022;-52
2021/04/29 06:58:59;;;;;;;6.20;2.08;;;20.50;41.50;;;;;;5033914;28;20045;-46
2021/04/29 07:01:24;;;;;;;7.55;2.05;;;20.50;41.80;;;;;;5036150;28;20095;-48
2021/04/29 07:03:50;;;;;;;5.07;2.28;;;20.50;42.10;;;;;;5035951;28;20095;-48
2021/04/29 07:06:15;;;;;;;4.25;2.58;;;20.50;42.20;;;;;;5035588;28;20034;-48
2021/04/29 07:08:41;;;;;;;6.78;3.88;;;20.60;42.00;;;;;;5035981;28;20022;-51
2021/04/29 07:11:13;;;;;;;10.38;3.90;;;20.50;41.80;;;;;;5035713;28;20429;-51
2021/04/29 07:13:38;;;;;;;15.18;3.30;;;20.50;41.60;;;;;;5035620;28;20030;-47
2021/04/29 07:16:04;;;;;;;9.38;3.72;;;20.50;41.90;;;;;;5035666;28;20087;-45
2021/04/29 07:18:29;;;;;;;11.18;4.88;;;20.50;42.00;;;;;;5035933;28;20103;-45
2021/04/29 07:20:55;;;;;;;9.38;5.28;;;20.50;41.90;;;;;;5035659;28;20033;-48
2021/04/29 07:23:21;;;;;;;9.25;5.88;;;20.50;41.90;;;;;;5035610;28;20025;-46
2021/04/29 07:25:47;;;;;;;8.77;6.05;;;20.40;42.00;;;;;;5035654;28;20056;-45
2021/04/29 07:28:12;;;;;;;7.30;5.70;;;20.40;42.10;;;;;;5035599;28;20115;-46
2021/04/29 07:30:39;;;;;;;8.40;5.55;;;20.40;42.10;;;;;;5035658;28;20030;-46
2021/04/29 07:33:05;;;;;;;6.45;5.00;;;20.30;42.00;;;;;;5035338;28;20342;-48
2021/04/29 07:35:31;;;;;;;8.55;5.35;;;20.30;41.90;;;;;;5035139;28;20075;-51
2021/04/29 07:37:57;;;;;;;6.22;4.72;;;20.30;41.80;;;;;;5035267;28;20363;-49
2021/04/29 07:40:22;;;;;;;5.60;4.18;;;20.40;41.80;;;;;;5035244;28;20428;-45
2021/04/29 07:42:48;;;;;;;7.55;4.93;;;20.30;41.60;;;;;;5035128;28;20356;-48
2021/04/29 07:45:14;;;;;;;4.32;3.25;;;20.40;41.90;;;;;;5035384;28;20021;-47
2021/04/29 07:47:40;;;;;;;5.10;3.67;;;20.40;41.80;;;;;;5035396;28;20448;-45
2021/04/29 07:50:06;;;;;;;3.47;2.95;;;20.40;41.70;;;;;;5034690;28;20091;-46
2021/04/29 07:52:31;;;;;;;4.00;2.72;;;20.50;41.80;;;;;;5034827;28;20459;-48
2021/04/29 07:54:57;;;;;;;3.78;2.50;;;20.50;41.80;;;;;;5035162;28;20029;-46
2021/04/29 07:57:24;;;;;;;3.85;2.15;;;20.50;41.80;;;;;;5034912;28;20048;-45
2021/04/29 07:59:49;;;;;;;4.88;3.00;;;20.50;41.70;;;;;;5034959;28;20022;-46
2021/04/29 08:02:15;;;;;;;5.45;3.58;;;20.50;41.70;;;;;;5034786;28;20044;-48
2021/04/29 08:04:40;;;;;;;6.22;3.67;;;20.50;42.30;;;;;;5034995;28;20102;-49
2021/04/29 08:07:06;;;;;;;5.28;2.30;;;20.50;42.40;;;;;;5034862;28;20071;-47
2021/04/29 08:09:31;;;;;;;4.40;2.30;;;20.50;42.20;;;;;;5034746;28;20033;-46
2021/04/29 08:11:57;;;;;;;4.40;2.40;;;20.60;42.10;;;;;;5034621;28;20021;-46
2021/04/29 08:14:22;;;;;;;3.17;2.05;;;20.60;42.00;;;;;;5034767;28;20349;-50
2021/04/29 08:16:50;;;;;;;3.50;2.50;;;20.60;42.60;;;;;;5034440;28;20101;-50
2021/04/29 08:19:15;;;;;;;6.53;2.53;;;20.70;41.90;;;;;;5034894;28;20033;-50
2021/04/29 08:21:41;;;;;;;3.22;2.20;;;20.70;41.80;;;;;;5034765;28;20071;-49
2021/04/29 08:24:07;;;;;;;6.57;2.10;;;20.60;41.70;;;;;;5035079;28;20428;-46
2021/04/29 08:26:33;;;;;;;3.00;2.13;;;20.60;42.30;;;;;;5034930;28;20417;-46
2021/04/29 08:28:58;;;;;;;4.05;2.10;;;20.70;41.80;;;;;;5034885;28;20095;-48
2021/04/29 08:31:24;;;;;;;6.53;2.53;;;20.70;42.10;;;;;;5034359;28;20046;-47
2021/04/29 08:33:49;;;;;;;5.90;1.92;;;20.70;42.20;;;;;;5034573;28;20026;-47
2021/04/29 08:36:15;;;;;;;3.22;1.77;;;20.70;42.10;;;;;;5034867;28;20036;-48
2021/04/29 08:38:40;;;;;;;2.20;1.42;;;20.70;42.10;;;;;;5034500;28;20352;-47
2021/04/29 08:41:06;;;;;;;5.28;2.25;;;20.70;42.20;;;;;;5034803;28;20033;-47
2021/04/29 08:43:31;;;;;;;2.88;1.70;;;20.70;42.20;;;;;;5034408;28;20575;-50
2021/04/29 08:45:57;;;;;;;5.72;2.22;;;20.70;42.20;;;;;;5034465;28;20021;-51
2021/04/29 08:48:24;;;;;;;1.75;1.40;;;20.80;42.20;;;;;;5034604;28;20033;-47
2021/04/29 08:50:50;;;;;;;7.97;2.30;;;20.70;42.20;;;;;;5034489;28;20021;-48
2021/04/29 08:53:16;;;;;;;4.63;2.03;;;20.80;42.50;;;;;;5034621;28;20034;-48
2021/04/29 08:55:42;;;;;;;4.68;1.63;;;20.80;42.50;;;;;;5033856;28;20329;-47
2021/04/29 08:58:09;;;;;;;2.25;1.77;;;20.80;42.60;;;;;;5034482;28;20095;-51
2021/04/29 09:00:35;;;;;;;5.25;2.03;;;20.80;42.60;;;;;;5033949;28;20056;-52
2021/04/29 09:03:00;;;;;;;3.05;1.80;;;20.80;42.80;;;;;;5034802;28;20030;-51
2021/04/29 09:05:34;;;;;;;2.72;1.55;;;20.80;42.90;;;;;;5034455;28;20025;-46
2021/04/29 09:08:02;;;;;;;2.17;1.70;;;20.90;43.00;;;;;;5034412;28;20041;-46
2021/04/29 09:10:34;;;;;;;4.25;2.28;;;20.80;43.00;;;;;;5034138;28;20452;-49
2021/04/29 09:13:12;;;;;;;6.45;2.25;;;20.90;43.40;;;;;;5034437;28;20036;-52
2021/04/29 09:15:39;;;;;;;8.98;2.42;;;20.90;43.50;;;;;;5034406;28;20022;-48
2021/04/29 09:18:04;;;;;;;6.95;2.15;;;20.90;44.10;;;;;;5034331;28;20033;-48
2021/04/29 09:20:30;;;;;;;7.95;2.13;;;20.90;43.90;;;;;;5034289;28;20498;-50
2021/04/29 09:23:06;;;;;;;7.88;2.10;;;20.90;44.00;;;;;;5037624;28;20033;-54
2021/04/29 09:25:36;;;;;;;7.85;2.22;;;20.90;44.10;;;;;;5037398;28;20471;-52
2021/04/29 09:28:02;;;;;;;3.65;2.05;;;20.90;44.10;;;;;;5037767;28;20033;-53
2021/04/29 09:30:28;;;;;;;6.55;1.90;;;20.90;44.10;;;;;;5037482;28;20017;-52
2021/04/29 09:32:59;;;;;;;3.42;1.70;;;20.90;44.10;;;;;;5037213;28;20464;-57
2021/04/29 09:35:28;;;;;;;5.95;2.40;;;20.90;44.20;;;;;;5037654;28;20040;-51
2021/04/29 09:37:59;;;;;;;5.20;2.13;;;20.90;44.40;;;;;;5037258;28;20388;-51
2021/04/29 09:40:29;;;;;;;4.25;1.60;;;20.90;44.40;;;;;;5037293;28;20064;-51
2021/04/29 09:42:57;;;;;;;3.65;2.50;;;21.00;44.50;;;;;;5020729;28;20049;-49
2021/04/29 09:45:27;;;;;;;5.88;2.20;;;21.00;44.80;;;;;;5037491;28;20035;-55
2021/04/29 09:48:02;;;;;;;5.55;2.45;;;21.00;44.80;;;;;;5037653;28;20033;-53
2021/04/29 09:50:38;;;;;;;4.93;2.63;;;21.00;45.00;;;;;;5037310;28;20025;-49
2021/04/29 09:53:07;;;;;;;4.78;2.13;;;21.00;45.10;;;;;;5037039;28;20040;-52
2021/04/29 09:55:35;;;;;;;2.45;1.75;;;21.00;45.00;;;;;;5037001;28;20076;-51
2021/04/29 09:58:14;;;;;;;3.45;2.13;;;21.00;44.80;;;;;;5036950;28;20029;-48
2021/04/29 10:00:41;;;;;;;5.68;2.75;;;21.00;44.90;;;;;;5037229;28;20021;-51
2021/04/29 10:03:08;;;;;;;8.27;2.60;;;21.00;45.00;;;;;;5036561;28;20018;-52
2021/04/29 10:05:39;;;;;;;7.88;2.50;;;21.10;45.00;;;;;;5037426;28;20021;-48
2021/04/29 10:08:07;;;;;;;7.10;2.72;;;21.00;44.80;;;;;;5037541;28;20222;-50
2021/04/29 10:10:34;;;;;;;3.75;2.22;;;21.00;44.80;;;;;;5037052;28;20021;-50
2021/04/29 10:13:03;;;;;;;3.72;2.10;;;21.10;44.90;;;;;;5037018;28;20025;-49
2021/04/29 10:15:31;;;;;;;2.45;2.20;;;21.10;44.90;;;;;;5036856;28;20029;-49
2021/04/29 10:17:58;;;;;;;5.45;2.08;;;21.10;44.90;;;;;;5036537;28;20052;-51
2021/04/29 10:20:23;;;;;;;3.60;2.10;;;21.10;45.10;;;;;;5036885;28;20029;-51
2021/04/29 10:22:49;;;;;;;7.40;2.70;;;21.10;45.00;;;;;;5037445;28;20325;-47
2021/04/29 10:25:26;;;;;;;5.75;2.30;;;21.10;45.00;;;;;;5036688;28;20036;-48
2021/04/29 10:27:55;;;;;;;4.28;2.50;;;21.10;44.90;;;;;;5036481;28;20032;-53
2021/04/29 10:30:29;;;;;;;14.73;5.80;;;21.10;44.70;;;;;;5036392;28;20026;-52
2021/04/29 10:32:54;;;;;;;8.32;6.10;;;21.10;44.40;;;;;;5035145;28;20045;-49
2021/04/29 10:35:22;;;;;;;12.48;5.38;;;21.00;43.50;;;;;;5036216;28;20114;-45
2021/04/29 10:37:54;;;;;;;6.18;4.10;;;20.90;43.70;;;;;;5036637;28;20032;-50
2021/04/29 10:40:39;;;;;;;4.28;2.40;;;20.90;44.90;;;;;;5036653;28;20025;-51
2021/04/29 10:43:06;;;;;;;3.20;2.03;;;20.90;44.50;;;;;;5036038;28;20128;-46
2021/04/29 10:45:32;;;;;;;2.58;1.80;;;21.00;44.50;;;;;;5036474;28;20037;-52
2021/04/29 10:48:07;;;;;;;2.30;1.77;;;21.00;44.50;;;;;;5036286;28;20043;-49
2021/04/29 10:50:42;;;;;;;4.28;1.60;;;21.00;44.40;;;;;;5036209;28;20079;-54
2021/04/29 10:53:08;;;;;;;3.97;1.70;;;21.10;44.40;;;;;;5036309;28;20022;-50
2021/04/29 10:55:38;;;;;;;2.22;1.70;;;21.10;44.40;;;;;;5035725;28;20108;-51
2021/04/29 10:58:06;;;;;;;4.15;2.20;;;21.10;44.30;;;;;;5036126;28;20044;-52
2021/04/29 11:00:51;;;;;;;6.53;2.67;;;21.10;44.60;;;;;;5036114;28;20026;-52
2021/04/29 11:03:27;;;;;;;6.47;2.25;;;21.10;44.70;;;;;;5035848;28;20033;-49
2021/04/29 11:06:04;;;;;;;4.45;2.45;;;21.10;44.60;;;;;;5035991;28;20424;-49
2021/04/29 11:08:37;;;;;;;9.18;2.83;;;21.10;44.60;;;;;;5036321;28;20017;-51
2021/04/29 11:11:03;;;;;;;5.47;2.30;;;21.20;44.60;;;;;;5036147;28;20037;-53
2021/04/29 11:13:29;;;;;;;12.02;2.47;;;21.10;44.70;;;;;;5036102;28;20026;-51
2021/04/29 11:16:00;;;;;;;22.05;3.22;;;21.10;44.70;;;;;;5035826;28;20033;-51
2021/04/29 11:18:25;;;;;;;8.68;2.55;;;21.20;45.00;;;;;;5035592;28;20045;-50
2021/04/29 11:20:55;;;;;;;11.57;3.03;;;21.20;45.10;;;;;;5035320;28;20367;-50
2021/04/29 11:23:27;;;;;;;15.95;2.70;;;21.10;45.00;;;;;;5035747;28;20029;-53
2021/04/29 11:26:17;;;;;;;9.95;3.13;;;21.10;45.00;;;;;;5035251;28;20021;-51
2021/04/29 11:28:44;;;;;;;20.35;2.90;;;21.20;45.90;;;;;;5035302;28;20116;-50
2021/04/29 11:31:10;;;;;;;10.98;2.83;;;21.20;45.20;;;;;;5035123;28;20025;-51
2021/04/29 11:33:42;;;;;;;12.13;2.65;;;21.20;45.20;;;;;;5035461;28;20033;-51
2021/04/29 11:36:22;;;;;;;6.68;2.20;;;21.20;45.30;;;;;;5035579;28;20028;-49
2021/04/29 11:38:51;;;;;;;16.20;3.58;;;21.20;45.30;;;;;;5035158;28;20049;-52
2021/04/29 11:41:17;;;;;;;13.27;3.30;;;21.20;45.70;;;;;;5035009;28;20029;-53
2021/04/29 11:43:43;;;;;;;15.23;2.72;;;21.20;45.90;;;;;;5034908;28;20416;-50
2021/04/29 11:46:21;;;;;;;14.32;2.75;;;21.20;45.80;;;;;;5035203;28;20026;-52
2021/04/29 11:48:57;;;;;;;9.77;2.35;;;21.20;45.70;;;;;;5035125;28;20080;-53
2021/04/29 11:51:25;;;;;;;10.23;2.80;;;21.30;45.60;;;;;;5035305;28;20021;-51
2021/04/29 11:53:51;;;;;;;8.88;2.67;;;21.20;45.60;;;;;;5035124;28;20433;-49
2021/04/29 11:56:16;;;;;;;11.13;3.15;;;21.20;45.50;;;;;;5035544;28;20040;-50
2021/04/29 11:58:42;;;;;;;10.90;3.15;;;21.20;45.40;;;;;;5035153;28;20041;-51
2021/04/29 12:01:15;;;;;;;9.98;3.25;;;21.30;45.40;;;;;;5035666;28;20022;-52
2021/04/29 12:03:42;;;;;;;5.82;2.47;;;21.20;45.30;;;;;;5035330;28;20022;-50
2021/04/29 12:06:08;;;;;;;14.40;2.55;;;21.20;45.40;;;;;;5035176;28;20029;-52
2021/04/29 12:08:35;;;;;;;10.57;2.47;;;21.20;45.40;;;;;;5041499;28;20335;-50
2021/04/29 12:11:07;;;;;;;7.95;2.75;;;21.20;45.40;;;;;;5055148;28;20032;-50
2021/04/29 12:13:38;;;;;;;8.30;2.88;;;21.20;45.40;;;;;;5054565;28;20032;-49
2021/04/29 12:16:11;;;;;;;10.25;2.25;;;21.20;45.30;;;;;;5054310;28;20402;-51
2021/04/29 12:18:48;;;;;;;6.65;2.55;;;21.20;45.30;;;;;;5054477;28;20065;-50
2021/04/29 12:21:15;;;;;;;24.20;3.17;;;21.20;45.30;;;;;;5055145;28;20028;-45
2021/04/29 12:23:41;;;;;;;18.35;3.58;;;21.20;45.80;;;;;;5054884;28;20108;-47
2021/04/29 12:26:09;;;;;;;15.32;2.97;;;21.20;45.80;;;;;;5054654;28;20017;-46
2021/04/29 12:28:36;;;;;;;13.82;2.50;;;21.20;45.80;;;;;;5054693;28;20052;-47
2021/04/29 12:31:19;;;;;;;9.98;2.78;;;21.20;45.70;;;;;;5054609;28;20032;-46
2021/04/29 12:34:05;;;;;;;10.98;2.60;;;21.20;45.60;;;;;;5054724;28;20032;-45
2021/04/29 12:36:33;;;;;;;9.77;2.67;;;21.20;45.60;;;;;;5054521;28;20032;-46
2021/04/29 12:38:59;;;;;;;10.00;2.60;;;21.20;45.60;;;;;;5054021;28;20044;-47
2021/04/29 12:41:28;;;;;;;10.77;2.55;;;21.20;45.60;;;;;;5054200;28;20100;-47
2021/04/29 12:44:00;;;;;;;9.05;2.45;;;21.20;45.40;;;;;;5054383;28;20443;-49
2021/04/29 12:46:30;;;;;;;15.18;2.33;;;21.20;45.20;;;;;;5054413;28;20075;-52